createdAt,value
2023-03-06T00:02:00.644Z,7.13
2023-03-06T00:04:28.188Z,7.60
2023-03-06T00:06:55.769Z,7.97
2023-03-06T00:09:23.285Z,8.93
2023-03-06T00:11:50.823Z,8.82
2023-03-06T00:14:19.142Z,9.40
2023-03-06T00:16:46.678Z,5.90
2023-03-06T00:19:14.219Z,8.40
2023-03-06T00:21:42.543Z,7.73
2023-03-06T00:24:10.081Z,7.23
2023-03-06T00:26:37.615Z,8.27
2023-03-06T00:29:05.159Z,8.10
2023-03-06T00:31:33.480Z,8.53
2023-03-06T00:34:00.996Z,9.60
2023-03-06T00:36:29.395Z,8.27
2023-03-06T00:38:56.936Z,9.20
2023-03-06T00:41:25.229Z,10.80
2023-03-06T00:43:52.792Z,11.10
2023-03-06T00:46:20.327Z,7.07
2023-03-06T00:48:48.610Z,8.93
2023-03-06T00:51:16.188Z,10.43
2023-03-06T00:53:43.713Z,7.57
2023-03-06T00:56:11.222Z,8.00
2023-03-06T00:58:38.787Z,8.67
2023-03-06T01:01:06.381Z,10.07
2023-03-06T01:03:33.856Z,9.73
2023-03-06T01:06:02.177Z,8.23
2023-03-06T01:08:29.717Z,9.03
2023-03-06T01:10:57.253Z,9.03
2023-03-06T01:13:25.574Z,11.80
2023-03-06T01:15:53.107Z,10.63
2023-03-06T01:18:20.671Z,10.90
2023-03-06T01:20:48.242Z,12.93
2023-03-06T01:23:15.748Z,10.17
2023-03-06T01:25:43.303Z,11.40
2023-03-06T01:28:10.855Z,10.27
2023-03-06T01:30:38.392Z,12.33
2023-03-06T01:33:05.921Z,10.23
2023-03-06T01:35:33.502Z,17.03
2023-03-06T01:38:01.120Z,15.00
2023-03-06T01:40:29.416Z,12.80
2023-03-06T01:42:56.964Z,12.13
2023-03-06T01:45:24.496Z,12.77
2023-03-06T01:47:52.024Z,11.37
2023-03-06T01:50:19.602Z,13.00
2023-03-06T01:52:52.695Z,15.93
2023-03-06T01:55:25.677Z,12.93
2023-03-06T01:57:53.211Z,17.23
2023-03-06T02:00:23.722Z,13.50
2023-03-06T02:02:57.265Z,16.43
2023-03-06T02:05:24.776Z,22.40
2023-03-06T02:07:52.310Z,26.63
2023-03-06T02:10:20.631Z,21.37
2023-03-06T02:12:48.149Z,19.63
2023-03-06T02:15:16.461Z,23.83
2023-03-06T02:17:44.323Z,25.47
2023-03-06T02:20:26.932Z,13.80
2023-03-06T02:23:15.534Z,14.17
2023-03-06T02:25:45.771Z,16.70
2023-03-06T02:28:14.063Z,18.48
2023-03-06T02:30:41.662Z,19.10
2023-03-06T02:33:09.183Z,15.53
2023-03-06T02:35:36.773Z,18.60
2023-03-06T02:38:05.049Z,14.70
2023-03-06T02:40:32.573Z,12.57
2023-03-06T02:43:00.865Z,10.27
2023-03-06T02:45:43.555Z,12.23
2023-03-06T02:48:11.026Z,11.63
2023-03-06T02:50:38.549Z,10.37
2023-03-06T02:53:06.102Z,8.83
2023-03-06T02:55:33.637Z,11.07
2023-03-06T02:58:01.172Z,8.97
2023-03-06T03:00:28.736Z,11.93
2023-03-06T03:02:56.277Z,11.03
2023-03-06T03:05:23.797Z,10.47
2023-03-06T03:07:51.346Z,12.37
2023-03-06T03:10:18.889Z,12.03
2023-03-06T03:12:46.432Z,11.13
2023-03-06T03:15:14.246Z,11.70
2023-03-06T03:17:42.558Z,11.77
2023-03-06T03:20:10.331Z,11.23
2023-03-06T03:22:37.896Z,10.67
2023-03-06T03:25:05.558Z,9.50
2023-03-06T03:27:33.075Z,12.47
2023-03-06T03:30:01.399Z,10.57
2023-03-06T03:32:28.966Z,10.60
2023-03-06T03:34:57.227Z,11.67
2023-03-06T03:37:24.806Z,11.30
2023-03-06T03:39:52.332Z,10.67
2023-03-06T03:42:19.876Z,11.37
2023-03-06T03:44:47.467Z,10.93
2023-03-06T03:47:14.967Z,11.53
2023-03-06T03:49:42.501Z,11.80
2023-03-06T03:52:10.064Z,14.75
2023-03-06T03:54:37.598Z,14.60
2023-03-06T03:57:05.138Z,11.40
2023-03-06T03:59:33.830Z,12.37
2023-03-06T04:02:01.368Z,16.23
2023-03-06T04:04:29.667Z,11.53
2023-03-06T04:06:58.344Z,13.87
2023-03-06T04:09:25.873Z,13.87
2023-03-06T04:11:53.406Z,13.37
2023-03-06T04:14:21.000Z,13.57
2023-03-06T04:16:48.513Z,14.07
2023-03-06T04:19:16.058Z,17.45
2023-03-06T04:21:43.592Z,14.85
2023-03-06T04:24:11.897Z,12.70
2023-03-06T04:26:39.430Z,12.40
2023-03-06T04:29:06.995Z,15.70
2023-03-06T04:31:34.674Z,16.40
2023-03-06T04:34:02.846Z,14.70
2023-03-06T04:36:33.120Z,13.37
2023-03-06T04:39:00.687Z,14.50
2023-03-06T04:41:28.176Z,13.43
2023-03-06T04:43:56.035Z,13.47
2023-03-06T04:46:23.574Z,12.93
2023-03-06T04:48:51.890Z,15.53
2023-03-06T04:51:19.435Z,14.23
2023-03-06T04:53:46.953Z,13.60
2023-03-06T04:56:14.488Z,14.87
2023-03-06T04:58:42.053Z,15.87
2023-03-06T05:01:09.671Z,13.53
2023-03-06T05:03:37.118Z,13.40
2023-03-06T05:06:04.682Z,16.63
2023-03-06T05:08:32.220Z,17.10
2023-03-06T05:11:00.527Z,16.27
2023-03-06T05:13:28.083Z,14.77
2023-03-06T05:15:55.605Z,16.80
2023-03-06T05:18:23.909Z,17.33
2023-03-06T05:20:51.474Z,17.07
2023-03-06T05:23:19.009Z,15.87
2023-03-06T05:25:47.349Z,16.40
2023-03-06T05:28:14.888Z,20.23
2023-03-06T05:30:42.419Z,16.53
2023-03-06T05:33:09.958Z,17.30
2023-03-06T05:35:38.349Z,22.80
2023-03-06T05:38:07.438Z,17.07
2023-03-06T05:40:35.729Z,15.43
2023-03-06T05:43:03.354Z,20.00
2023-03-06T05:45:30.899Z,17.40
2023-03-06T05:47:58.430Z,18.57
2023-03-06T05:50:26.028Z,16.50
2023-03-06T05:52:53.564Z,17.13
2023-03-06T05:55:21.110Z,18.42
2023-03-06T05:57:48.691Z,17.33
2023-03-06T06:00:16.271Z,16.43
2023-03-06T06:02:46.475Z,17.40
2023-03-06T06:05:14.040Z,18.70
2023-03-06T06:07:41.577Z,18.65
2023-03-06T06:10:09.331Z,16.43
2023-03-06T06:12:37.203Z,20.33
2023-03-06T06:15:04.882Z,17.23
2023-03-06T06:17:32.419Z,21.87
2023-03-06T06:19:59.997Z,19.00
2023-03-06T06:22:27.514Z,18.07
2023-03-06T06:24:55.044Z,20.37
2023-03-06T06:27:23.368Z,18.60
2023-03-06T06:29:50.901Z,19.70
2023-03-06T06:32:18.455Z,20.53
2023-03-06T06:34:46.032Z,22.50
2023-03-06T06:37:13.554Z,22.67
2023-03-06T06:39:41.928Z,18.03
2023-03-06T06:42:29.082Z,20.10
2023-03-06T06:44:37.024Z,18.60
2023-03-06T06:49:32.123Z,20.17
2023-03-06T06:51:59.660Z,20.23
2023-03-06T06:54:27.192Z,20.73
2023-03-06T06:56:54.766Z,18.33
2023-03-06T06:59:25.860Z,18.93
2023-03-06T07:01:53.558Z,21.23
2023-03-06T07:04:21.709Z,19.17
2023-03-06T07:06:49.265Z,19.27
2023-03-06T07:09:16.780Z,18.80
2023-03-06T07:11:44.385Z,17.33
2023-03-06T07:14:11.914Z,19.23
2023-03-06T07:16:39.433Z,16.40
2023-03-06T07:19:07.788Z,23.07
2023-03-06T07:21:35.298Z,25.87
2023-03-06T07:24:02.830Z,20.00
2023-03-06T07:26:32.092Z,21.10
2023-03-06T07:28:57.999Z,23.20
2023-03-06T07:31:25.595Z,18.80
2023-03-06T07:33:53.114Z,21.40
2023-03-06T07:36:20.657Z,29.50
2023-03-06T07:38:48.201Z,24.83
2023-03-06T07:41:15.819Z,19.67
2023-03-06T07:43:43.374Z,25.87
2023-03-06T07:46:11.010Z,19.33
2023-03-06T07:48:39.272Z,22.10
2023-03-06T07:51:06.818Z,22.57
2023-03-06T07:53:34.362Z,24.97
2023-03-06T07:56:02.725Z,21.17
2023-03-06T07:58:30.251Z,20.90
2023-03-06T08:00:57.764Z,24.33
2023-03-06T08:03:26.500Z,25.43
2023-03-06T08:05:54.005Z,22.27
2023-03-06T08:08:22.328Z,28.97
2023-03-06T08:10:49.889Z,22.60
2023-03-06T08:13:17.412Z,21.47
2023-03-06T08:15:44.937Z,21.93
2023-03-06T08:18:12.510Z,21.67
2023-03-06T08:20:40.870Z,22.13
2023-03-06T08:23:08.390Z,21.37
2023-03-06T08:25:35.971Z,21.33
2023-03-06T08:28:03.502Z,20.40
2023-03-06T08:30:31.029Z,22.63
2023-03-06T08:32:58.613Z,22.13
2023-03-06T08:35:26.158Z,22.40
2023-03-06T08:37:53.691Z,22.63
2023-03-06T08:40:22.043Z,21.30
2023-03-06T08:42:49.567Z,23.03
2023-03-06T08:45:17.154Z,26.80
2023-03-06T08:47:45.421Z,21.80
2023-03-06T08:50:12.967Z,20.97
2023-03-06T08:52:40.495Z,23.07
2023-03-06T08:55:08.301Z,21.23
2023-03-06T08:57:35.850Z,28.13
2023-03-06T09:00:03.380Z,21.97
2023-03-06T09:02:30.974Z,23.50
2023-03-06T09:04:58.498Z,23.60
2023-03-06T09:07:26.042Z,21.30
2023-03-06T09:09:57.123Z,21.73
2023-03-06T09:12:24.646Z,23.73
2023-03-06T09:14:52.960Z,22.67
2023-03-06T09:17:20.553Z,24.80
2023-03-06T09:19:48.080Z,23.43
2023-03-06T09:22:15.615Z,22.13
2023-03-06T09:24:43.932Z,22.13
2023-03-06T09:27:11.445Z,23.10
2023-03-06T09:29:38.985Z,21.83
2023-03-06T09:32:06.624Z,22.17
2023-03-06T09:34:34.109Z,24.67
2023-03-06T09:37:01.633Z,22.83
2023-03-06T09:39:29.238Z,23.90
2023-03-06T09:41:57.579Z,19.43
2023-03-06T09:44:34.301Z,21.33
2023-03-06T09:47:19.546Z,23.77
2023-03-06T09:49:58.879Z,26.45
2023-03-06T09:52:31.865Z,23.53
2023-03-06T09:55:03.037Z,23.23
2023-03-06T09:57:37.201Z,24.40
2023-03-06T10:00:07.731Z,21.00
2023-03-06T10:02:50.013Z,22.50
2023-03-06T10:05:26.127Z,21.00
2023-03-06T10:08:03.346Z,20.87
2023-03-06T10:10:33.879Z,21.17
2023-03-06T10:13:01.413Z,20.77
2023-03-06T10:15:34.722Z,24.47
2023-03-06T10:18:02.295Z,20.77
2023-03-06T10:20:29.828Z,25.40
2023-03-06T10:23:03.091Z,23.57
2023-03-06T10:25:30.029Z,21.13
2023-03-06T10:27:57.556Z,23.48
2023-03-06T10:30:49.804Z,20.47
2023-03-06T10:33:22.765Z,21.97
2023-03-06T10:35:50.368Z,22.40
2023-03-06T10:38:32.921Z,22.80
2023-03-06T10:41:06.654Z,23.77
2023-03-06T10:43:36.405Z,22.50
2023-03-06T10:46:01.812Z,22.90
2023-03-06T10:48:29.319Z,24.23
2023-03-06T10:51:19.173Z,24.00
2023-03-06T10:53:48.185Z,23.83
2023-03-06T10:56:15.720Z,20.30
2023-03-06T10:58:44.075Z,20.30
2023-03-06T11:01:20.622Z,22.43
2023-03-06T11:03:48.924Z,26.40
2023-03-06T11:06:16.457Z,21.57
2023-03-06T11:08:43.983Z,21.63
2023-03-06T11:11:14.497Z,26.73
2023-03-06T11:13:41.756Z,19.70
2023-03-06T11:16:27.760Z,17.23
2023-03-06T11:18:55.263Z,19.33
2023-03-06T11:21:25.741Z,23.17
2023-03-06T11:23:53.326Z,19.60
2023-03-06T11:26:26.499Z,24.00
2023-03-06T11:28:59.950Z,18.80
2023-03-06T11:31:29.982Z,22.47
2023-03-06T11:34:12.328Z,21.63
2023-03-06T11:36:48.757Z,20.50
2023-03-06T11:39:19.909Z,23.17
2023-03-06T11:42:00.189Z,27.53
2023-03-06T11:44:45.952Z,25.17
2023-03-06T11:47:25.709Z,31.73
2023-03-06T11:50:23.407Z,22.43
2023-03-06T11:52:53.920Z,23.30
2023-03-06T11:55:21.430Z,20.13
2023-03-06T11:57:56.406Z,25.30
2023-03-06T12:01:00.978Z,23.57
2023-03-06T12:03:37.822Z,24.23
2023-03-06T12:06:05.359Z,22.67
2023-03-06T12:08:50.669Z,19.53
2023-03-06T12:11:24.088Z,22.33
2023-03-06T12:14:12.905Z,27.87
2023-03-06T12:16:49.419Z,23.73
2023-03-06T12:19:53.516Z,38.60
2023-03-06T12:22:39.675Z,23.70
2023-03-06T12:25:07.243Z,21.80
2023-03-06T12:27:37.279Z,23.93
2023-03-06T12:30:23.097Z,22.43
2023-03-06T12:33:03.402Z,23.17
2023-03-06T12:35:42.717Z,25.53
2023-03-06T12:38:28.015Z,21.53
2023-03-06T12:41:07.226Z,23.00
2023-03-06T12:43:49.915Z,21.50
2023-03-06T12:46:27.195Z,23.43
2023-03-06T12:49:06.682Z,21.30
2023-03-06T12:51:34.264Z,23.67
2023-03-06T12:54:01.816Z,26.03
2023-03-06T12:56:29.341Z,24.03
2023-03-06T12:58:56.929Z,20.67
2023-03-06T13:01:54.862Z,25.03
2023-03-06T13:04:37.288Z,23.60
2023-03-06T13:07:13.472Z,22.97
2023-03-06T13:09:56.203Z,25.63
2023-03-06T13:12:32.529Z,21.17
2023-03-06T13:15:00.126Z,22.10
2023-03-06T13:17:27.677Z,28.77
2023-03-06T13:20:13.753Z,23.87
2023-03-06T13:22:44.584Z,22.23
2023-03-06T13:25:18.935Z,22.23
2023-03-06T13:27:46.458Z,20.23
2023-03-06T13:30:29.077Z,19.73
2023-03-06T13:32:56.618Z,23.93
2023-03-06T13:35:30.210Z,27.73
2023-03-06T13:37:58.841Z,25.00
2023-03-06T13:40:26.351Z,22.83
2023-03-06T13:43:03.175Z,24.37
2023-03-06T13:45:30.729Z,21.47
2023-03-06T13:50:41.552Z,23.40
2023-03-06T13:53:36.237Z,39.27
2023-03-06T13:56:15.830Z,37.83
2023-03-06T13:59:14.341Z,23.58
2023-03-06T14:01:53.523Z,20.90
2023-03-06T14:04:38.789Z,22.23
2023-03-06T14:07:25.863Z,22.90
2023-03-06T14:10:02.353Z,26.80
2023-03-06T14:12:32.608Z,18.57
2023-03-06T14:15:03.060Z,21.20
2023-03-06T14:17:33.300Z,20.97
2023-03-06T14:20:13.649Z,19.37
2023-03-06T14:22:41.178Z,18.60
2023-03-06T14:25:17.663Z,19.37
2023-03-06T14:27:48.200Z,20.10
2023-03-06T14:30:15.749Z,17.77
2023-03-06T14:32:43.386Z,19.83
2023-03-06T14:35:22.680Z,19.80
2023-03-06T14:37:50.195Z,19.10
2023-03-06T14:40:17.725Z,19.07
2023-03-06T14:42:45.288Z,22.60
2023-03-06T14:45:16.563Z,20.43
2023-03-06T14:47:44.084Z,18.97
2023-03-06T14:50:26.711Z,20.77
2023-03-06T14:52:59.936Z,21.07
2023-03-06T14:55:27.552Z,28.05
2023-03-06T14:57:57.736Z,20.43
2023-03-06T15:00:25.300Z,21.12
2023-03-06T15:02:52.838Z,20.43
2023-03-06T15:05:26.797Z,21.27
2023-03-06T15:07:54.317Z,19.27
2023-03-06T15:10:24.664Z,19.43
2023-03-06T15:12:52.212Z,22.07
2023-03-06T15:15:19.757Z,20.03
2023-03-06T15:17:47.299Z,21.03
2023-03-06T15:20:39.515Z,19.17
2023-03-06T15:23:22.200Z,17.97
2023-03-06T15:25:49.779Z,18.13
2023-03-06T15:28:23.717Z,20.83
2023-03-06T15:31:06.044Z,22.02
2023-03-06T15:33:33.581Z,20.13
2023-03-06T15:36:04.030Z,22.57
2023-03-06T15:38:40.261Z,18.93
2023-03-06T15:41:07.812Z,20.67
2023-03-06T15:43:36.114Z,19.80
2023-03-06T15:46:03.758Z,23.70
2023-03-06T15:48:31.255Z,22.60
2023-03-06T15:50:58.788Z,16.10
2023-03-06T15:53:27.163Z,20.23
2023-03-06T15:55:54.719Z,19.67
2023-03-06T15:58:22.232Z,19.60
2023-03-06T16:00:50.168Z,23.67
2023-03-06T16:03:17.687Z,21.83
2023-03-06T16:05:46.104Z,21.27
2023-03-06T16:08:13.579Z,21.47
2023-03-06T16:10:41.104Z,21.63
2023-03-06T16:13:08.678Z,23.70
2023-03-06T16:15:38.918Z,19.40
2023-03-06T16:18:06.464Z,24.50
2023-03-06T16:20:34.001Z,19.23
2023-03-06T16:23:01.558Z,21.87
2023-03-06T16:25:29.092Z,22.77
2023-03-06T16:27:59.117Z,20.33
2023-03-06T16:30:26.701Z,21.43
2023-03-06T16:32:54.226Z,20.97
2023-03-06T16:35:21.776Z,21.03
2023-03-06T16:37:49.362Z,21.03
2023-03-06T16:40:23.420Z,22.10
2023-03-06T16:42:51.685Z,21.10
2023-03-06T16:45:18.525Z,20.83
2023-03-06T16:47:46.055Z,23.90
2023-03-06T16:50:22.570Z,22.17
2023-03-06T16:52:50.136Z,21.20
2023-03-06T16:55:17.673Z,23.62
2023-03-06T16:57:45.206Z,24.42
2023-03-06T17:00:13.681Z,20.00
2023-03-06T17:02:41.250Z,21.73
2023-03-06T17:05:09.626Z,21.90
2023-03-06T17:07:37.214Z,25.30
2023-03-06T17:10:04.732Z,29.57
2023-03-06T17:12:32.276Z,27.25
2023-03-06T17:15:00.629Z,24.47
2023-03-06T17:17:28.135Z,24.50
2023-03-06T17:19:55.672Z,25.27
2023-03-06T17:22:24.042Z,24.13
2023-03-06T17:24:52.344Z,24.57
2023-03-06T17:27:19.889Z,22.60
2023-03-06T17:29:47.465Z,23.10
2023-03-06T17:32:14.998Z,20.97
2023-03-06T17:34:43.306Z,23.53
2023-03-06T17:37:11.429Z,24.83
2023-03-06T17:39:38.993Z,25.63
2023-03-06T17:42:07.294Z,23.47
2023-03-06T17:44:34.876Z,26.43
2023-03-06T17:47:02.415Z,25.23
2023-03-06T17:49:29.935Z,25.37
2023-03-06T17:51:57.520Z,25.23
2023-03-06T17:54:25.843Z,24.33
2023-03-06T17:57:01.933Z,23.23
2023-03-06T17:59:29.465Z,27.40
2023-03-06T18:01:57.077Z,27.73
2023-03-06T18:04:24.705Z,25.07
2023-03-06T18:06:52.216Z,25.27
2023-03-06T18:09:19.745Z,25.23
2023-03-06T18:11:48.123Z,26.80
2023-03-06T18:14:15.641Z,25.57
2023-03-06T18:16:43.171Z,24.27
2023-03-06T18:19:11.303Z,20.70
2023-03-06T18:21:40.425Z,25.53
2023-03-06T18:24:06.427Z,28.42
2023-03-06T18:26:33.996Z,26.23
2023-03-06T18:29:02.288Z,29.70
2023-03-06T18:31:34.487Z,28.23
2023-03-06T18:34:00.379Z,28.30
2023-03-06T18:36:27.914Z,29.58
2023-03-06T18:38:56.233Z,27.83
2023-03-06T18:41:23.798Z,27.43
2023-03-06T18:43:57.364Z,29.53
2023-03-06T18:46:24.900Z,27.33
2023-03-06T18:48:52.472Z,31.37
2023-03-06T18:51:20.781Z,32.03
2023-03-06T18:53:48.296Z,31.40
2023-03-06T18:56:18.461Z,29.77
2023-03-06T18:58:46.009Z,27.57
2023-03-06T19:01:14.338Z,26.70
2023-03-06T19:03:41.897Z,30.30
2023-03-06T19:06:09.494Z,30.37
2023-03-06T19:08:37.007Z,32.15
2023-03-06T19:11:04.609Z,29.60
2023-03-06T19:13:32.913Z,33.97
2023-03-06T19:16:00.437Z,29.50
2023-03-06T19:18:29.170Z,32.93
2023-03-06T19:20:56.710Z,31.23
2023-03-06T19:23:24.227Z,28.03
2023-03-06T19:25:58.691Z,34.60
2023-03-06T19:28:26.219Z,30.90
2023-03-06T19:30:54.529Z,27.33
2023-03-06T19:33:22.105Z,32.03
2023-03-06T19:35:49.744Z,31.33
2023-03-06T19:38:17.175Z,33.77
2023-03-06T19:40:51.644Z,35.53
2023-03-06T19:43:19.162Z,28.53
2023-03-06T19:45:46.721Z,30.57
2023-03-06T19:48:14.543Z,27.70
2023-03-06T19:50:42.074Z,31.62
2023-03-06T19:53:09.599Z,33.47
2023-03-06T19:55:38.738Z,32.33
2023-03-06T19:58:06.254Z,28.67
2023-03-06T20:00:34.575Z,28.93
2023-03-06T20:03:02.239Z,30.17
2023-03-06T20:05:29.754Z,29.87
2023-03-06T20:07:58.075Z,28.90
2023-03-06T20:10:25.653Z,29.87
2023-03-06T20:12:53.174Z,31.27
2023-03-06T20:15:20.693Z,30.10
2023-03-06T20:17:49.042Z,30.33
2023-03-06T20:20:16.603Z,29.80
2023-03-06T20:22:44.104Z,33.53
2023-03-06T20:25:12.503Z,28.20
2023-03-06T20:27:40.045Z,31.03
2023-03-06T20:30:08.152Z,29.03
2023-03-06T20:32:35.448Z,28.23
2023-03-06T20:35:02.952Z,31.03
2023-03-06T20:37:30.468Z,28.00
2023-03-06T20:39:59.400Z,31.07
2023-03-06T20:42:26.935Z,28.43
2023-03-06T20:44:55.245Z,29.00
2023-03-06T20:47:23.313Z,27.83
2023-03-06T20:49:50.845Z,26.80
2023-03-06T20:52:18.422Z,29.93
2023-03-06T20:54:45.984Z,28.43
2023-03-06T20:57:13.500Z,29.13
2023-03-06T20:59:41.809Z,30.73
2023-03-06T21:02:09.662Z,25.57
2023-03-06T21:04:37.228Z,31.50
2023-03-06T21:07:04.732Z,27.53
2023-03-06T21:09:33.068Z,28.30
2023-03-06T21:12:00.635Z,27.70
2023-03-06T21:14:28.209Z,30.97
2023-03-06T21:16:55.806Z,29.23
2023-03-06T21:19:23.345Z,28.60
2023-03-06T21:21:50.901Z,30.05
2023-03-06T21:24:20.938Z,35.03
2023-03-06T21:26:46.012Z,31.93
2023-03-06T21:29:13.556Z,31.55
2023-03-06T21:31:41.186Z,33.33
2023-03-06T21:34:08.662Z,29.13
2023-03-06T21:36:36.200Z,27.40
2023-03-06T21:39:04.535Z,29.70
2023-03-06T21:41:32.090Z,30.97
2023-03-06T21:43:59.649Z,28.17
2023-03-06T21:46:27.184Z,28.53
2023-03-06T21:48:54.707Z,27.00
2023-03-06T21:51:23.014Z,28.63
2023-03-06T21:53:50.603Z,31.20
2023-03-06T21:56:18.137Z,26.70
2023-03-06T21:58:45.663Z,26.97
2023-03-06T22:01:15.113Z,29.43
2023-03-06T22:03:42.632Z,29.27
2023-03-06T22:06:10.946Z,32.57
2023-03-06T22:08:38.520Z,29.77
2023-03-06T22:11:11.731Z,33.83
2023-03-06T22:13:39.272Z,31.37
2023-03-06T22:16:07.288Z,32.27
2023-03-06T22:18:34.783Z,33.57
2023-03-06T22:21:12.088Z,29.27
2023-03-06T22:23:39.626Z,29.93
2023-03-06T22:26:07.183Z,35.88
2023-03-06T22:28:34.811Z,30.57
2023-03-06T22:31:08.099Z,29.57
2023-03-06T22:33:36.387Z,37.60
2023-03-06T22:36:04.087Z,32.57
2023-03-06T22:38:31.486Z,30.70
2023-03-06T22:40:59.776Z,29.40
2023-03-06T22:43:27.340Z,33.70
2023-03-06T22:45:54.899Z,32.90
2023-03-06T22:48:23.209Z,35.07
2023-03-06T22:50:50.769Z,36.63
2023-03-06T22:53:18.327Z,31.90
2023-03-06T22:55:45.877Z,36.73
2023-03-06T22:58:13.521Z,37.50
2023-03-06T23:00:41.055Z,36.30
2023-03-06T23:03:09.350Z,31.80
2023-03-06T23:05:37.222Z,31.80
2023-03-06T23:08:04.758Z,31.10
2023-03-06T23:10:33.062Z,33.73
2023-03-06T23:13:00.645Z,31.77
2023-03-06T23:15:28.208Z,31.10
2023-03-06T23:17:55.747Z,29.67
2023-03-06T23:20:23.312Z,29.07
2023-03-06T23:22:50.837Z,27.43
2023-03-06T23:25:19.158Z,32.53
2023-03-06T23:27:46.753Z,26.33
2023-03-06T23:30:14.312Z,27.03
2023-03-06T23:32:43.388Z,31.67
2023-03-06T23:35:09.790Z,27.40
2023-03-06T23:37:37.332Z,26.97
2023-03-06T23:40:05.845Z,30.17
2023-03-06T23:42:33.418Z,26.90
2023-03-06T23:45:00.959Z,26.67
2023-03-06T23:47:28.503Z,26.17
2023-03-06T23:49:56.094Z,27.73
2023-03-06T23:52:23.622Z,26.00
2023-03-06T23:54:51.176Z,26.37
2023-03-06T23:57:18.761Z,24.37
2023-03-06T23:59:46.295Z,28.13
